sensor_id;sensor_type;location;lat;lon;timestamp;temperature;humidity
17621;DHT22;8929;51.008;6.804;2022-12-24T00:01:44;11.50;99.90
17621;DHT22;8929;51.008;6.804;2022-12-24T00:04:10;11.50;99.90
17621;DHT22;8929;51.008;6.804;2022-12-24T00:06:35;11.40;99.90
17621;DHT22;8929;51.008;6.804;2022-12-24T00:09:01;11.40;99.90
17621;DHT22;8929;51.008;6.804;2022-12-24T00:11:26;11.40;99.90
17621;DHT22;8929;51.008;6.804;2022-12-24T00:13:52;11.40;99.90
17621;DHT22;8929;51.008;6.804;2022-12-24T00:16:17;11.30;99.90
17621;DHT22;8929;51.008;6.804;2022-12-24T00:18:43;11.30;99.90
17621;DHT22;8929;51.008;6.804;2022-12-24T00:21:08;11.40;99.90
17621;DHT22;8929;51.008;6.804;2022-12-24T00:23:34;11.40;99.90
17621;DHT22;8929;51.008;6.804;2022-12-24T00:25:59;11.30;99.90
17621;DHT22;8929;51.008;6.804;2022-12-24T00:28:24;11.30;99.90
17621;DHT22;8929;51.008;6.804;2022-12-24T00:30:50;11.30;99.90
17621;DHT22;8929;51.008;6.804;2022-12-24T00:33:15;11.40;99.90
17621;DHT22;8929;51.008;6.804;2022-12-24T00:35:41;11.40;99.90
17621;DHT22;8929;51.008;6.804;2022-12-24T00:38:06;11.60;99.90
17621;DHT22;8929;51.008;6.804;2022-12-24T00:40:32;11.60;99.90
17621;DHT22;8929;51.008;6.804;2022-12-24T00:42:58;11.60;99.90
17621;DHT22;8929;51.008;6.804;2022-12-24T00:45:23;11.70;99.90
17621;DHT22;8929;51.008;6.804;2022-12-24T00:47:52;11.60;99.90
17621;DHT22;8929;51.008;6.804;2022-12-24T00:50:17;11.70;99.90
17621;DHT22;8929;51.008;6.804;2022-12-24T00:52:43;11.70;99.90
17621;DHT22;8929;51.008;6.804;2022-12-24T00:55:08;11.80;99.90
17621;DHT22;8929;51.008;6.804;2022-12-24T00:57:34;11.70;99.90
17621;DHT22;8929;51.008;6.804;2022-12-24T00:59:59;11.80;99.90
17621;DHT22;8929;51.008;6.804;2022-12-24T01:02:25;11.80;99.90
17621;DHT22;8929;51.008;6.804;2022-12-24T01:04:50;11.90;99.90
17621;DHT22;8929;51.008;6.804;2022-12-24T01:07:34;11.90;99.90
17621;DHT22;8929;51.008;6.804;2022-12-24T01:10:00;11.80;99.90
17621;DHT22;8929;51.008;6.804;2022-12-24T01:12:25;11.80;99.90
17621;DHT22;8929;51.008;6.804;2022-12-24T01:14:51;11.80;99.90
17621;DHT22;8929;51.008;6.804;2022-12-24T01:17:16;11.80;99.90
17621;DHT22;8929;51.008;6.804;2022-12-24T01:19:42;11.80;99.90
17621;DHT22;8929;51.008;6.804;2022-12-24T01:22:08;11.80;99.90
17621;DHT22;8929;51.008;6.804;2022-12-24T01:24:33;11.80;99.90
17621;DHT22;8929;51.008;6.804;2022-12-24T01:26:59;11.90;99.90
17621;DHT22;8929;51.008;6.804;2022-12-24T01:29:24;11.90;99.90
17621;DHT22;8929;51.008;6.804;2022-12-24T01:31:50;12.00;99.90
17621;DHT22;8929;51.008;6.804;2022-12-24T01:34:15;12.00;99.90
17621;DHT22;8929;51.008;6.804;2022-12-24T01:36:41;12.00;99.90
17621;DHT22;8929;51.008;6.804;2022-12-24T01:39:06;11.90;99.90
17621;DHT22;8929;51.008;6.804;2022-12-24T01:41:32;11.90;99.90
17621;DHT22;8929;51.008;6.804;2022-12-24T01:44:20;11.80;99.90
17621;DHT22;8929;51.008;6.804;2022-12-24T01:46:46;11.80;99.90
17621;DHT22;8929;51.008;6.804;2022-12-24T01:49:13;11.80;99.90
17621;DHT22;8929;51.008;6.804;2022-12-24T01:51:41;11.70;99.90
17621;DHT22;8929;51.008;6.804;2022-12-24T01:54:09;11.70;99.90
17621;DHT22;8929;51.008;6.804;2022-12-24T01:56:36;11.70;99.90
17621;DHT22;8929;51.008;6.804;2022-12-24T01:59:05;11.60;99.90
17621;DHT22;8929;51.008;6.804;2022-12-24T02:01:32;11.60;99.90
17621;DHT22;8929;51.008;6.804;2022-12-24T02:03:58;11.50;99.90
17621;DHT22;8929;51.008;6.804;2022-12-24T02:06:24;11.50;99.90
17621;DHT22;8929;51.008;6.804;2022-12-24T02:08:50;11.50;99.90
17621;DHT22;8929;51.008;6.804;2022-12-24T02:11:16;11.40;99.90
17621;DHT22;8929;51.008;6.804;2022-12-24T02:13:43;11.40;99.90
17621;DHT22;8929;51.008;6.804;2022-12-24T02:18:59;11.40;99.90
17621;DHT22;8929;51.008;6.804;2022-12-24T02:21:35;11.40;99.90
17621;DHT22;8929;51.008;6.804;2022-12-24T02:31:47;11.40;99.90
17621;DHT22;8929;51.008;6.804;2022-12-24T02:36:58;11.40;99.90
17621;DHT22;8929;51.008;6.804;2022-12-24T02:39:29;11.40;99.90
17621;DHT22;8929;51.008;6.804;2022-12-24T02:41:57;11.40;99.90
17621;DHT22;8929;51.008;6.804;2022-12-24T02:47:04;11.60;99.90
17621;DHT22;8929;51.008;6.804;2022-12-24T02:49:30;11.70;99.90
17621;DHT22;8929;51.008;6.804;2022-12-24T02:51:56;11.70;99.90
17621;DHT22;8929;51.008;6.804;2022-12-24T02:54:21;11.70;99.90
17621;DHT22;8929;51.008;6.804;2022-12-24T03:01:55;11.90;99.90
17621;DHT22;8929;51.008;6.804;2022-12-24T03:04:39;11.90;99.90
17621;DHT22;8929;51.008;6.804;2022-12-24T03:09:46;12.00;99.90
17621;DHT22;8929;51.008;6.804;2022-12-24T03:12:19;11.90;99.90
17621;DHT22;8929;51.008;6.804;2022-12-24T03:14:46;12.00;99.90
17621;DHT22;8929;51.008;6.804;2022-12-24T03:17:12;11.90;99.90
17621;DHT22;8929;51.008;6.804;2022-12-24T03:19:38;11.90;99.90
17621;DHT22;8929;51.008;6.804;2022-12-24T03:22:04;11.90;99.90
17621;DHT22;8929;51.008;6.804;2022-12-24T03:24:31;11.80;99.90
17621;DHT22;8929;51.008;6.804;2022-12-24T03:26:57;11.70;99.90
17621;DHT22;8929;51.008;6.804;2022-12-24T03:29:23;11.80;99.90
17621;DHT22;8929;51.008;6.804;2022-12-24T03:31:50;11.60;99.90
17621;DHT22;8929;51.008;6.804;2022-12-24T03:34:16;11.50;99.90
17621;DHT22;8929;51.008;6.804;2022-12-24T03:36:42;11.40;99.90
17621;DHT22;8929;51.008;6.804;2022-12-24T03:39:08;11.40;99.90
17621;DHT22;8929;51.008;6.804;2022-12-24T03:41:34;11.30;99.90
17621;DHT22;8929;51.008;6.804;2022-12-24T03:44:00;11.20;99.90
17621;DHT22;8929;51.008;6.804;2022-12-24T03:46:26;11.20;99.90
17621;DHT22;8929;51.008;6.804;2022-12-24T03:48:51;11.20;99.90
17621;DHT22;8929;51.008;6.804;2022-12-24T03:51:17;11.20;99.90
17621;DHT22;8929;51.008;6.804;2022-12-24T03:53:43;11.10;99.90
17621;DHT22;8929;51.008;6.804;2022-12-24T03:56:08;11.00;99.90
17621;DHT22;8929;51.008;6.804;2022-12-24T03:58:34;11.10;99.90
17621;DHT22;8929;51.008;6.804;2022-12-24T04:00:59;11.00;99.90
17621;DHT22;8929;51.008;6.804;2022-12-24T04:03:25;10.90;99.90
17621;DHT22;8929;51.008;6.804;2022-12-24T04:06:00;11.00;99.90
17621;DHT22;8929;51.008;6.804;2022-12-24T04:08:26;11.00;99.90
17621;DHT22;8929;51.008;6.804;2022-12-24T04:10:52;10.90;99.90
17621;DHT22;8929;51.008;6.804;2022-12-24T04:13:17;11.00;99.90
17621;DHT22;8929;51.008;6.804;2022-12-24T04:15:42;11.10;99.90
17621;DHT22;8929;51.008;6.804;2022-12-24T04:18:08;11.00;99.90
17621;DHT22;8929;51.008;6.804;2022-12-24T04:20:33;11.10;99.90
17621;DHT22;8929;51.008;6.804;2022-12-24T04:22:59;11.10;99.90
17621;DHT22;8929;51.008;6.804;2022-12-24T04:25:24;11.10;99.90
17621;DHT22;8929;51.008;6.804;2022-12-24T04:27:50;11.20;99.90
17621;DHT22;8929;51.008;6.804;2022-12-24T04:30:15;11.20;99.90
17621;DHT22;8929;51.008;6.804;2022-12-24T04:32:41;11.20;99.90
17621;DHT22;8929;51.008;6.804;2022-12-24T04:35:06;11.20;99.90
17621;DHT22;8929;51.008;6.804;2022-12-24T04:37:32;11.20;99.90
17621;DHT22;8929;51.008;6.804;2022-12-24T04:39:58;11.20;99.90
17621;DHT22;8929;51.008;6.804;2022-12-24T04:42:23;11.30;99.90
17621;DHT22;8929;51.008;6.804;2022-12-24T04:44:49;11.30;99.90
17621;DHT22;8929;51.008;6.804;2022-12-24T04:47:14;11.20;99.90
17621;DHT22;8929;51.008;6.804;2022-12-24T04:49:40;11.20;99.90
17621;DHT22;8929;51.008;6.804;2022-12-24T04:52:05;11.10;99.90
17621;DHT22;8929;51.008;6.804;2022-12-24T04:54:31;11.00;99.90
17621;DHT22;8929;51.008;6.804;2022-12-24T04:56:56;11.00;99.90
17621;DHT22;8929;51.008;6.804;2022-12-24T04:59:22;11.10;99.90
17621;DHT22;8929;51.008;6.804;2022-12-24T05:01:47;11.10;99.90
17621;DHT22;8929;51.008;6.804;2022-12-24T05:04:12;11.10;99.90
17621;DHT22;8929;51.008;6.804;2022-12-24T05:06:38;11.20;99.90
17621;DHT22;8929;51.008;6.804;2022-12-24T05:09:03;11.20;99.90
17621;DHT22;8929;51.008;6.804;2022-12-24T05:11:29;11.30;99.90
17621;DHT22;8929;51.008;6.804;2022-12-24T05:13:55;11.30;99.90
17621;DHT22;8929;51.008;6.804;2022-12-24T05:16:21;11.30;99.90
17621;DHT22;8929;51.008;6.804;2022-12-24T05:18:46;11.30;99.90
17621;DHT22;8929;51.008;6.804;2022-12-24T05:21:13;11.30;99.90
17621;DHT22;8929;51.008;6.804;2022-12-24T05:23:39;11.30;99.90
17621;DHT22;8929;51.008;6.804;2022-12-24T05:28:55;11.20;99.90
17621;DHT22;8929;51.008;6.804;2022-12-24T05:31:21;11.20;99.90
17621;DHT22;8929;51.008;6.804;2022-12-24T05:33:47;11.10;99.90
17621;DHT22;8929;51.008;6.804;2022-12-24T05:36:13;11.10;99.90
17621;DHT22;8929;51.008;6.804;2022-12-24T05:38:38;11.00;99.90
17621;DHT22;8929;51.008;6.804;2022-12-24T05:41:04;10.90;99.90
17621;DHT22;8929;51.008;6.804;2022-12-24T05:43:30;10.90;99.90
17621;DHT22;8929;51.008;6.804;2022-12-24T05:45:59;11.00;99.90
17621;DHT22;8929;51.008;6.804;2022-12-24T05:48:25;11.00;99.90
17621;DHT22;8929;51.008;6.804;2022-12-24T05:50:50;11.00;99.90
17621;DHT22;8929;51.008;6.804;2022-12-24T05:53:16;11.00;99.90
17621;DHT22;8929;51.008;6.804;2022-12-24T05:55:41;11.10;99.90
17621;DHT22;8929;51.008;6.804;2022-12-24T05:58:07;11.10;99.90
17621;DHT22;8929;51.008;6.804;2022-12-24T06:00:32;11.10;99.90
17621;DHT22;8929;51.008;6.804;2022-12-24T06:02:57;11.10;99.90
17621;DHT22;8929;51.008;6.804;2022-12-24T06:05:23;11.20;99.90
17621;DHT22;8929;51.008;6.804;2022-12-24T06:07:48;11.10;99.90
17621;DHT22;8929;51.008;6.804;2022-12-24T06:10:14;11.10;99.90
17621;DHT22;8929;51.008;6.804;2022-12-24T06:12:39;11.10;99.90
17621;DHT22;8929;51.008;6.804;2022-12-24T06:15:05;11.10;99.90
17621;DHT22;8929;51.008;6.804;2022-12-24T06:17:30;11.20;99.90
17621;DHT22;8929;51.008;6.804;2022-12-24T06:19:56;11.20;99.90
17621;DHT22;8929;51.008;6.804;2022-12-24T06:22:21;11.20;99.90
17621;DHT22;8929;51.008;6.804;2022-12-24T06:24:47;11.20;99.90
17621;DHT22;8929;51.008;6.804;2022-12-24T06:27:12;11.10;99.90
17621;DHT22;8929;51.008;6.804;2022-12-24T06:29:38;11.10;99.90
17621;DHT22;8929;51.008;6.804;2022-12-24T06:32:03;11.10;99.90
17621;DHT22;8929;51.008;6.804;2022-12-24T06:34:29;10.90;99.90
17621;DHT22;8929;51.008;6.804;2022-12-24T06:36:54;11.00;99.90
17621;DHT22;8929;51.008;6.804;2022-12-24T06:39:20;10.90;99.90
17621;DHT22;8929;51.008;6.804;2022-12-24T06:41:45;11.00;99.90
17621;DHT22;8929;51.008;6.804;2022-12-24T06:44:10;10.90;99.90
17621;DHT22;8929;51.008;6.804;2022-12-24T06:46:36;11.00;99.90
17621;DHT22;8929;51.008;6.804;2022-12-24T06:49:01;11.00;99.90
17621;DHT22;8929;51.008;6.804;2022-12-24T06:51:27;11.00;99.90
17621;DHT22;8929;51.008;6.804;2022-12-24T06:53:52;10.90;99.90
17621;DHT22;8929;51.008;6.804;2022-12-24T06:56:19;10.90;99.90
17621;DHT22;8929;51.008;6.804;2022-12-24T06:58:44;11.00;99.90
17621;DHT22;8929;51.008;6.804;2022-12-24T07:01:11;11.00;99.90
17621;DHT22;8929;51.008;6.804;2022-12-24T07:03:37;11.00;99.90
17621;DHT22;8929;51.008;6.804;2022-12-24T07:06:02;11.00;99.90
17621;DHT22;8929;51.008;6.804;2022-12-24T07:08:28;11.10;99.90
17621;DHT22;8929;51.008;6.804;2022-12-24T07:10:54;11.10;99.90
17621;DHT22;8929;51.008;6.804;2022-12-24T07:13:19;11.10;99.90
17621;DHT22;8929;51.008;6.804;2022-12-24T07:15:45;11.10;99.90
17621;DHT22;8929;51.008;6.804;2022-12-24T07:18:11;11.20;99.90
17621;DHT22;8929;51.008;6.804;2022-12-24T07:20:37;11.20;99.90
17621;DHT22;8929;51.008;6.804;2022-12-24T07:23:02;11.20;99.90
17621;DHT22;8929;51.008;6.804;2022-12-24T07:25:28;11.20;99.90
17621;DHT22;8929;51.008;6.804;2022-12-24T07:27:53;11.20;99.90
17621;DHT22;8929;51.008;6.804;2022-12-24T07:30:19;11.30;99.90
17621;DHT22;8929;51.008;6.804;2022-12-24T07:32:44;11.30;99.90
17621;DHT22;8929;51.008;6.804;2022-12-24T07:35:10;11.30;99.90
17621;DHT22;8929;51.008;6.804;2022-12-24T07:37:35;11.30;99.90
17621;DHT22;8929;51.008;6.804;2022-12-24T07:40:01;11.30;99.90
17621;DHT22;8929;51.008;6.804;2022-12-24T07:42:27;11.40;99.90
17621;DHT22;8929;51.008;6.804;2022-12-24T07:44:52;11.30;99.90
17621;DHT22;8929;51.008;6.804;2022-12-24T07:47:18;11.30;99.90
17621;DHT22;8929;51.008;6.804;2022-12-24T07:49:43;11.40;99.90
17621;DHT22;8929;51.008;6.804;2022-12-24T07:52:08;11.40;99.90
17621;DHT22;8929;51.008;6.804;2022-12-24T07:54:34;11.40;99.90
17621;DHT22;8929;51.008;6.804;2022-12-24T07:56:59;11.30;99.90
17621;DHT22;8929;51.008;6.804;2022-12-24T07:59:25;11.20;99.90
17621;DHT22;8929;51.008;6.804;2022-12-24T08:01:50;11.30;99.90
17621;DHT22;8929;51.008;6.804;2022-12-24T08:04:16;11.30;99.90
17621;DHT22;8929;51.008;6.804;2022-12-24T08:06:41;11.30;99.90
17621;DHT22;8929;51.008;6.804;2022-12-24T08:09:07;11.40;99.90
17621;DHT22;8929;51.008;6.804;2022-12-24T08:11:32;11.40;99.90
17621;DHT22;8929;51.008;6.804;2022-12-24T08:13:57;11.60;99.90
17621;DHT22;8929;51.008;6.804;2022-12-24T08:16:23;11.60;99.90
17621;DHT22;8929;51.008;6.804;2022-12-24T08:18:48;11.70;99.90
17621;DHT22;8929;51.008;6.804;2022-12-24T08:21:14;11.70;99.90
17621;DHT22;8929;51.008;6.804;2022-12-24T08:23:39;11.70;99.90
17621;DHT22;8929;51.008;6.804;2022-12-24T08:26:05;11.80;99.90
17621;DHT22;8929;51.008;6.804;2022-12-24T08:28:31;11.80;99.90
17621;DHT22;8929;51.008;6.804;2022-12-24T08:30:56;11.80;99.90
17621;DHT22;8929;51.008;6.804;2022-12-24T08:33:23;11.70;99.90
17621;DHT22;8929;51.008;6.804;2022-12-24T08:35:52;11.70;99.90
17621;DHT22;8929;51.008;6.804;2022-12-24T08:38:18;11.70;99.90
17621;DHT22;8929;51.008;6.804;2022-12-24T08:40:43;11.80;99.90
17621;DHT22;8929;51.008;6.804;2022-12-24T08:43:09;11.80;99.90
17621;DHT22;8929;51.008;6.804;2022-12-24T08:45:34;11.70;99.90
17621;DHT22;8929;51.008;6.804;2022-12-24T08:48:00;11.80;99.90
17621;DHT22;8929;51.008;6.804;2022-12-24T08:50:25;11.80;99.90
17621;DHT22;8929;51.008;6.804;2022-12-24T08:52:52;11.70;99.90
17621;DHT22;8929;51.008;6.804;2022-12-24T08:55:18;11.80;99.90
17621;DHT22;8929;51.008;6.804;2022-12-24T08:57:43;11.90;99.90
17621;DHT22;8929;51.008;6.804;2022-12-24T09:00:10;11.80;99.90
17621;DHT22;8929;51.008;6.804;2022-12-24T09:02:36;11.90;99.90
17621;DHT22;8929;51.008;6.804;2022-12-24T09:05:01;11.90;99.90
17621;DHT22;8929;51.008;6.804;2022-12-24T09:07:27;12.00;99.90
17621;DHT22;8929;51.008;6.804;2022-12-24T09:09:53;12.10;99.90
17621;DHT22;8929;51.008;6.804;2022-12-24T09:12:18;12.20;99.90
17621;DHT22;8929;51.008;6.804;2022-12-24T09:14:44;12.10;99.90
17621;DHT22;8929;51.008;6.804;2022-12-24T09:17:09;12.10;99.90
17621;DHT22;8929;51.008;6.804;2022-12-24T09:19:34;12.10;99.90
17621;DHT22;8929;51.008;6.804;2022-12-24T09:22:00;12.00;99.90
17621;DHT22;8929;51.008;6.804;2022-12-24T09:24:25;12.10;99.90
17621;DHT22;8929;51.008;6.804;2022-12-24T09:26:51;12.10;99.90
17621;DHT22;8929;51.008;6.804;2022-12-24T09:29:16;12.10;99.90
17621;DHT22;8929;51.008;6.804;2022-12-24T09:31:42;12.10;99.90
17621;DHT22;8929;51.008;6.804;2022-12-24T09:34:07;12.00;99.90
17621;DHT22;8929;51.008;6.804;2022-12-24T09:36:33;12.00;99.90
17621;DHT22;8929;51.008;6.804;2022-12-24T09:38:59;11.90;99.90
17621;DHT22;8929;51.008;6.804;2022-12-24T09:43:55;12.00;99.90
17621;DHT22;8929;51.008;6.804;2022-12-24T09:46:25;12.00;99.90
17621;DHT22;8929;51.008;6.804;2022-12-24T09:48:53;12.00;99.90
17621;DHT22;8929;51.008;6.804;2022-12-24T09:56:46;12.00;99.90
17621;DHT22;8929;51.008;6.804;2022-12-24T09:59:13;12.00;99.90
17621;DHT22;8929;51.008;6.804;2022-12-24T10:01:39;12.10;99.90
17621;DHT22;8929;51.008;6.804;2022-12-24T10:04:14;12.20;99.90
17621;DHT22;8929;51.008;6.804;2022-12-24T10:11:38;12.30;99.90
17621;DHT22;8929;51.008;6.804;2022-12-24T10:19:13;12.50;99.90
17621;DHT22;8929;51.008;6.804;2022-12-24T10:24:37;12.50;99.90
17621;DHT22;8929;51.008;6.804;2022-12-24T10:27:11;12.60;99.90
17621;DHT22;8929;51.008;6.804;2022-12-24T10:29:45;12.70;99.90
17621;DHT22;8929;51.008;6.804;2022-12-24T10:32:19;12.70;99.90
17621;DHT22;8929;51.008;6.804;2022-12-24T10:34:50;12.70;99.90
17621;DHT22;8929;51.008;6.804;2022-12-24T10:37:24;12.60;99.90
17621;DHT22;8929;51.008;6.804;2022-12-24T10:39:50;12.60;99.90
17621;DHT22;8929;51.008;6.804;2022-12-24T10:42:16;12.80;99.90
17621;DHT22;8929;51.008;6.804;2022-12-24T10:44:41;12.90;99.90
17621;DHT22;8929;51.008;6.804;2022-12-24T10:47:09;12.80;99.90
17621;DHT22;8929;51.008;6.804;2022-12-24T10:49:42;13.00;99.90
17621;DHT22;8929;51.008;6.804;2022-12-24T10:52:10;13.00;99.90
17621;DHT22;8929;51.008;6.804;2022-12-24T10:54:36;12.90;99.90
17621;DHT22;8929;51.008;6.804;2022-12-24T10:57:05;12.80;99.90
17621;DHT22;8929;51.008;6.804;2022-12-24T10:59:35;12.90;99.90
17621;DHT22;8929;51.008;6.804;2022-12-24T11:02:26;12.70;99.90
17621;DHT22;8929;51.008;6.804;2022-12-24T11:04:52;12.70;99.90
17621;DHT22;8929;51.008;6.804;2022-12-24T11:07:19;12.70;99.90
17621;DHT22;8929;51.008;6.804;2022-12-24T11:09:53;12.70;99.90
17621;DHT22;8929;51.008;6.804;2022-12-24T11:12:20;12.80;99.90
17621;DHT22;8929;51.008;6.804;2022-12-24T11:14:46;12.80;99.90
17621;DHT22;8929;51.008;6.804;2022-12-24T11:17:19;12.90;99.90
17621;DHT22;8929;51.008;6.804;2022-12-24T11:19:46;13.00;99.90
17621;DHT22;8929;51.008;6.804;2022-12-24T11:22:20;12.90;99.90
17621;DHT22;8929;51.008;6.804;2022-12-24T11:24:54;13.00;99.90
17621;DHT22;8929;51.008;6.804;2022-12-24T11:32:47;13.40;99.90
17621;DHT22;8929;51.008;6.804;2022-12-24T11:35:15;13.40;99.90
17621;DHT22;8929;51.008;6.804;2022-12-24T11:37:40;13.50;99.90
17621;DHT22;8929;51.008;6.804;2022-12-24T11:40:16;13.60;99.90
17621;DHT22;8929;51.008;6.804;2022-12-24T11:42:43;13.90;99.90
17621;DHT22;8929;51.008;6.804;2022-12-24T11:45:26;14.00;99.90
17621;DHT22;8929;51.008;6.804;2022-12-24T11:47:52;14.00;99.90
17621;DHT22;8929;51.008;6.804;2022-12-24T11:52:48;14.10;99.90
17621;DHT22;8929;51.008;6.804;2022-12-24T11:55:19;14.00;99.90
17621;DHT22;8929;51.008;6.804;2022-12-24T11:57:55;13.90;99.90
17621;DHT22;8929;51.008;6.804;2022-12-24T12:00:23;13.90;99.90
17621;DHT22;8929;51.008;6.804;2022-12-24T12:02:50;13.80;99.90
17621;DHT22;8929;51.008;6.804;2022-12-24T12:05:16;13.70;99.90
17621;DHT22;8929;51.008;6.804;2022-12-24T12:07:42;13.70;99.90
17621;DHT22;8929;51.008;6.804;2022-12-24T12:10:22;13.90;99.90
17621;DHT22;8929;51.008;6.804;2022-12-24T12:15:24;14.20;99.90
17621;DHT22;8929;51.008;6.804;2022-12-24T12:18:08;14.60;99.90
17621;DHT22;8929;51.008;6.804;2022-12-24T12:20:42;14.60;99.90
17621;DHT22;8929;51.008;6.804;2022-12-24T12:25:36;14.70;99.90
17621;DHT22;8929;51.008;6.804;2022-12-24T12:28:02;14.60;99.90
17621;DHT22;8929;51.008;6.804;2022-12-24T12:30:30;14.40;99.90
17621;DHT22;8929;51.008;6.804;2022-12-24T12:32:58;14.40;99.90
17621;DHT22;8929;51.008;6.804;2022-12-24T12:35:25;14.20;99.90
17621;DHT22;8929;51.008;6.804;2022-12-24T12:37:54;14.20;99.90
17621;DHT22;8929;51.008;6.804;2022-12-24T12:40:20;14.20;99.90
17621;DHT22;8929;51.008;6.804;2022-12-24T12:42:57;14.20;99.90
17621;DHT22;8929;51.008;6.804;2022-12-24T12:45:37;14.40;99.90
17621;DHT22;8929;51.008;6.804;2022-12-24T12:48:10;14.50;99.90
17621;DHT22;8929;51.008;6.804;2022-12-24T12:56:13;14.60;99.90
17621;DHT22;8929;51.008;6.804;2022-12-24T13:01:11;15.20;99.90
17621;DHT22;8929;51.008;6.804;2022-12-24T13:03:42;15.30;99.90
17621;DHT22;8929;51.008;6.804;2022-12-24T13:19:12;19.00;99.90
17621;DHT22;8929;51.008;6.804;2022-12-24T13:21:41;18.60;99.90
17621;DHT22;8929;51.008;6.804;2022-12-24T13:26:39;18.90;99.90
17621;DHT22;8929;51.008;6.804;2022-12-24T13:30:08;18.00;99.90
17621;DHT22;8929;51.008;6.804;2022-12-24T13:34:50;17.50;99.90
17621;DHT22;8929;51.008;6.804;2022-12-24T13:37:30;17.20;99.90
17621;DHT22;8929;51.008;6.804;2022-12-24T13:47:53;16.90;99.90
17621;DHT22;8929;51.008;6.804;2022-12-24T13:50:23;16.70;99.90
17621;DHT22;8929;51.008;6.804;2022-12-24T13:52:49;16.60;99.90
17621;DHT22;8929;51.008;6.804;2022-12-24T13:55:15;16.40;99.90
17621;DHT22;8929;51.008;6.804;2022-12-24T13:57:46;16.30;99.90
17621;DHT22;8929;51.008;6.804;2022-12-24T14:02:49;16.00;99.90
17621;DHT22;8929;51.008;6.804;2022-12-24T14:05:18;15.80;99.90
17621;DHT22;8929;51.008;6.804;2022-12-24T14:07:47;15.70;99.90
17621;DHT22;8929;51.008;6.804;2022-12-24T14:10:25;15.30;99.90
17621;DHT22;8929;51.008;6.804;2022-12-24T14:12:52;15.10;99.90
17621;DHT22;8929;51.008;6.804;2022-12-24T14:18:02;14.70;99.90
17621;DHT22;8929;51.008;6.804;2022-12-24T14:20:29;14.70;99.90
17621;DHT22;8929;51.008;6.804;2022-12-24T14:22:56;14.60;99.90
17621;DHT22;8929;51.008;6.804;2022-12-24T14:25:21;14.40;99.90
17621;DHT22;8929;51.008;6.804;2022-12-24T14:30:16;14.40;99.90
17621;DHT22;8929;51.008;6.804;2022-12-24T14:32:42;14.30;99.90
17621;DHT22;8929;51.008;6.804;2022-12-24T14:35:18;14.10;99.90
17621;DHT22;8929;51.008;6.804;2022-12-24T14:37:45;14.00;99.90
17621;DHT22;8929;51.008;6.804;2022-12-24T14:40:18;13.80;99.90
17621;DHT22;8929;51.008;6.804;2022-12-24T14:45:36;13.50;99.90
17621;DHT22;8929;51.008;6.804;2022-12-24T14:48:12;13.60;99.90
17621;DHT22;8929;51.008;6.804;2022-12-24T14:50:56;13.60;99.90
17621;DHT22;8929;51.008;6.804;2022-12-24T14:55:55;13.40;99.90
17621;DHT22;8929;51.008;6.804;2022-12-24T15:00:54;13.20;99.90
17621;DHT22;8929;51.008;6.804;2022-12-24T15:03:21;13.10;99.90
17621;DHT22;8929;51.008;6.804;2022-12-24T15:06:04;12.90;99.90
17621;DHT22;8929;51.008;6.804;2022-12-24T15:08:32;13.00;99.90
17621;DHT22;8929;51.008;6.804;2022-12-24T15:10:59;12.90;99.90
17621;DHT22;8929;51.008;6.804;2022-12-24T15:13:31;12.80;99.90
17621;DHT22;8929;51.008;6.804;2022-12-24T15:15:58;12.80;99.90
17621;DHT22;8929;51.008;6.804;2022-12-24T15:18:25;12.70;99.90
17621;DHT22;8929;51.008;6.804;2022-12-24T15:20:53;12.70;99.90
17621;DHT22;8929;51.008;6.804;2022-12-24T15:23:20;12.60;99.90
17621;DHT22;8929;51.008;6.804;2022-12-24T15:25:46;12.50;99.90
17621;DHT22;8929;51.008;6.804;2022-12-24T15:28:15;12.40;99.90
17621;DHT22;8929;51.008;6.804;2022-12-24T15:30:40;12.20;99.90
17621;DHT22;8929;51.008;6.804;2022-12-24T15:33:08;12.10;99.90
17621;DHT22;8929;51.008;6.804;2022-12-24T15:38:00;11.90;99.90
17621;DHT22;8929;51.008;6.804;2022-12-24T15:40:27;11.80;99.90
17621;DHT22;8929;51.008;6.804;2022-12-24T15:42:52;11.70;99.90
17621;DHT22;8929;51.008;6.804;2022-12-24T15:45:19;11.60;99.90
17621;DHT22;8929;51.008;6.804;2022-12-24T15:47:48;11.50;99.90
17621;DHT22;8929;51.008;6.804;2022-12-24T15:53:01;11.40;99.90
17621;DHT22;8929;51.008;6.804;2022-12-24T15:57:56;11.20;99.90
17621;DHT22;8929;51.008;6.804;2022-12-24T16:00:22;11.20;99.90
17621;DHT22;8929;51.008;6.804;2022-12-24T16:02:49;11.20;99.90
17621;DHT22;8929;51.008;6.804;2022-12-24T16:07:59;11.10;99.90
17621;DHT22;8929;51.008;6.804;2022-12-24T16:10:31;11.10;99.90
17621;DHT22;8929;51.008;6.804;2022-12-24T16:12:57;11.00;99.90
17621;DHT22;8929;51.008;6.804;2022-12-24T16:15:22;10.90;99.90
17621;DHT22;8929;51.008;6.804;2022-12-24T16:17:48;10.80;99.90
17621;DHT22;8929;51.008;6.804;2022-12-24T16:20:19;10.70;99.90
17621;DHT22;8929;51.008;6.804;2022-12-24T16:22:45;10.60;99.90
17621;DHT22;8929;51.008;6.804;2022-12-24T16:27:42;10.50;99.90
17621;DHT22;8929;51.008;6.804;2022-12-24T16:30:10;10.50;99.90
17621;DHT22;8929;51.008;6.804;2022-12-24T16:32:35;10.40;99.90
17621;DHT22;8929;51.008;6.804;2022-12-24T16:35:02;10.30;99.90
17621;DHT22;8929;51.008;6.804;2022-12-24T16:37:28;10.30;99.90
17621;DHT22;8929;51.008;6.804;2022-12-24T16:39:54;10.20;99.90
17621;DHT22;8929;51.008;6.804;2022-12-24T16:42:19;10.10;99.90
17621;DHT22;8929;51.008;6.804;2022-12-24T16:45:04;10.00;99.90
17621;DHT22;8929;51.008;6.804;2022-12-24T16:47:30;9.90;99.90
17621;DHT22;8929;51.008;6.804;2022-12-24T16:49:56;9.80;99.90
17621;DHT22;8929;51.008;6.804;2022-12-24T16:52:23;9.70;99.90
17621;DHT22;8929;51.008;6.804;2022-12-24T16:54:50;9.70;99.90
17621;DHT22;8929;51.008;6.804;2022-12-24T16:57:16;9.70;99.90
17621;DHT22;8929;51.008;6.804;2022-12-24T16:59:42;9.60;99.90
17621;DHT22;8929;51.008;6.804;2022-12-24T17:02:09;9.50;99.90
17621;DHT22;8929;51.008;6.804;2022-12-24T17:04:37;9.50;99.90
17621;DHT22;8929;51.008;6.804;2022-12-24T17:07:03;9.50;99.90
17621;DHT22;8929;51.008;6.804;2022-12-24T17:09:29;9.40;99.90
17621;DHT22;8929;51.008;6.804;2022-12-24T17:11:54;9.40;99.90
17621;DHT22;8929;51.008;6.804;2022-12-24T17:14:20;9.40;99.90
17621;DHT22;8929;51.008;6.804;2022-12-24T17:16:45;9.30;99.90
17621;DHT22;8929;51.008;6.804;2022-12-24T17:19:11;9.40;99.90
17621;DHT22;8929;51.008;6.804;2022-12-24T17:21:36;9.30;99.90
17621;DHT22;8929;51.008;6.804;2022-12-24T17:24:02;9.30;99.90
17621;DHT22;8929;51.008;6.804;2022-12-24T17:26:27;9.30;99.90
17621;DHT22;8929;51.008;6.804;2022-12-24T17:28:53;9.20;99.90
17621;DHT22;8929;51.008;6.804;2022-12-24T17:31:20;9.20;99.90
17621;DHT22;8929;51.008;6.804;2022-12-24T17:33:47;9.20;99.90
17621;DHT22;8929;51.008;6.804;2022-12-24T17:36:12;9.20;99.90
17621;DHT22;8929;51.008;6.804;2022-12-24T17:38:37;9.20;99.90
17621;DHT22;8929;51.008;6.804;2022-12-24T17:41:04;9.20;99.90
17621;DHT22;8929;51.008;6.804;2022-12-24T17:43:31;9.20;99.90
17621;DHT22;8929;51.008;6.804;2022-12-24T17:45:57;9.10;99.90
17621;DHT22;8929;51.008;6.804;2022-12-24T17:48:22;9.10;99.90
17621;DHT22;8929;51.008;6.804;2022-12-24T17:50:47;9.20;99.90